sensor_id;sensor_type;location;lat;lon;timestamp;temperature;humidity
53274;DHT22;39163;52.696;6.758;2022-12-18T00:00:20;-3.40;99.90
53274;DHT22;39163;52.696;6.758;2022-12-18T00:02:49;-3.40;99.90
53274;DHT22;39163;52.696;6.758;2022-12-18T00:05:14;-3.40;99.90
53274;DHT22;39163;52.696;6.758;2022-12-18T00:07:40;-3.40;99.90
53274;DHT22;39163;52.696;6.758;2022-12-18T00:10:05;-3.40;99.90
53274;DHT22;39163;52.696;6.758;2022-12-18T00:12:31;-3.40;99.90
53274;DHT22;39163;52.696;6.758;2022-12-18T00:14:57;-3.50;99.90
53274;DHT22;39163;52.696;6.758;2022-12-18T00:17:22;-3.60;99.90
53274;DHT22;39163;52.696;6.758;2022-12-18T00:19:48;-3.60;99.90
53274;DHT22;39163;52.696;6.758;2022-12-18T00:22:13;-3.70;99.90
53274;DHT22;39163;52.696;6.758;2022-12-18T00:24:39;-3.80;99.90
53274;DHT22;39163;52.696;6.758;2022-12-18T00:27:05;-3.90;99.90
53274;DHT22;39163;52.696;6.758;2022-12-18T00:29:30;-3.90;99.90
53274;DHT22;39163;52.696;6.758;2022-12-18T00:31:56;-4.00;99.90
53274;DHT22;39163;52.696;6.758;2022-12-18T00:34:22;-4.00;99.90
53274;DHT22;39163;52.696;6.758;2022-12-18T00:36:47;-4.00;99.90
53274;DHT22;39163;52.696;6.758;2022-12-18T00:39:13;-4.00;99.90
53274;DHT22;39163;52.696;6.758;2022-12-18T00:41:39;-4.10;99.90
53274;DHT22;39163;52.696;6.758;2022-12-18T00:44:23;-4.10;99.90
53274;DHT22;39163;52.696;6.758;2022-12-18T00:46:49;-4.10;99.90
53274;DHT22;39163;52.696;6.758;2022-12-18T00:49:16;-4.20;99.90
53274;DHT22;39163;52.696;6.758;2022-12-18T00:51:42;-4.30;99.90
53274;DHT22;39163;52.696;6.758;2022-12-18T00:54:07;-4.30;99.90
53274;DHT22;39163;52.696;6.758;2022-12-18T00:56:34;-4.40;99.90
53274;DHT22;39163;52.696;6.758;2022-12-18T00:59:00;-4.40;99.90
53274;DHT22;39163;52.696;6.758;2022-12-18T01:01:26;-4.50;99.90
53274;DHT22;39163;52.696;6.758;2022-12-18T01:03:51;-4.50;99.90
53274;DHT22;39163;52.696;6.758;2022-12-18T01:06:17;-4.60;99.90
53274;DHT22;39163;52.696;6.758;2022-12-18T01:08:43;-4.70;99.90
53274;DHT22;39163;52.696;6.758;2022-12-18T01:11:10;-4.80;99.90
53274;DHT22;39163;52.696;6.758;2022-12-18T01:13:35;-4.80;99.90
53274;DHT22;39163;52.696;6.758;2022-12-18T01:16:01;-4.80;99.90
53274;DHT22;39163;52.696;6.758;2022-12-18T01:18:27;-4.80;99.90
53274;DHT22;39163;52.696;6.758;2022-12-18T01:20:56;-4.80;99.90
53274;DHT22;39163;52.696;6.758;2022-12-18T01:23:27;-4.90;99.90
53274;DHT22;39163;52.696;6.758;2022-12-18T01:25:53;-4.90;99.90
53274;DHT22;39163;52.696;6.758;2022-12-18T01:28:19;-4.90;99.90
53274;DHT22;39163;52.696;6.758;2022-12-18T01:30:47;-4.90;99.90
53274;DHT22;39163;52.696;6.758;2022-12-18T01:33:12;-5.00;99.90
53274;DHT22;39163;52.696;6.758;2022-12-18T01:35:41;-5.10;99.90
53274;DHT22;39163;52.696;6.758;2022-12-18T01:38:07;-5.10;99.90
53274;DHT22;39163;52.696;6.758;2022-12-18T01:40:33;-5.10;99.90
53274;DHT22;39163;52.696;6.758;2022-12-18T01:42:58;-5.10;99.90
53274;DHT22;39163;52.696;6.758;2022-12-18T01:45:25;-5.20;99.90
53274;DHT22;39163;52.696;6.758;2022-12-18T01:47:55;-5.30;99.90
53274;DHT22;39163;52.696;6.758;2022-12-18T01:50:25;-5.50;99.90
53274;DHT22;39163;52.696;6.758;2022-12-18T01:53:00;-5.40;99.90
53274;DHT22;39163;52.696;6.758;2022-12-18T01:55:28;-5.50;99.90
53274;DHT22;39163;52.696;6.758;2022-12-18T01:57:55;-5.60;99.90
53274;DHT22;39163;52.696;6.758;2022-12-18T02:00:22;-5.60;99.90
53274;DHT22;39163;52.696;6.758;2022-12-18T02:02:48;-5.60;99.90
53274;DHT22;39163;52.696;6.758;2022-12-18T02:05:25;-5.60;99.90
53274;DHT22;39163;52.696;6.758;2022-12-18T02:11:02;-5.70;99.90
53274;DHT22;39163;52.696;6.758;2022-12-18T02:13:20;-5.80;99.90
53274;DHT22;39163;52.696;6.758;2022-12-18T02:18:50;-6.00;99.90
53274;DHT22;39163;52.696;6.758;2022-12-18T02:24:10;-6.10;99.90
53274;DHT22;39163;52.696;6.758;2022-12-18T02:26:52;-6.10;99.90
53274;DHT22;39163;52.696;6.758;2022-12-18T02:29:22;-6.10;99.90
53274;DHT22;39163;52.696;6.758;2022-12-18T02:31:50;-6.10;99.90
53274;DHT22;39163;52.696;6.758;2022-12-18T02:34:16;-6.20;99.90
53274;DHT22;39163;52.696;6.758;2022-12-18T02:36:43;-6.20;99.90
53274;DHT22;39163;52.696;6.758;2022-12-18T02:39:21;-6.20;99.90
53274;DHT22;39163;52.696;6.758;2022-12-18T02:41:50;-6.30;99.90
53274;DHT22;39163;52.696;6.758;2022-12-18T02:44:16;-6.30;99.90
53274;DHT22;39163;52.696;6.758;2022-12-18T02:46:45;-6.30;99.90
53274;DHT22;39163;52.696;6.758;2022-12-18T02:51:53;-6.40;99.90
53274;DHT22;39163;52.696;6.758;2022-12-18T02:54:26;-6.40;99.90
53274;DHT22;39163;52.696;6.758;2022-12-18T02:57:01;-6.40;99.90
53274;DHT22;39163;52.696;6.758;2022-12-18T02:59:41;-6.40;99.90
53274;DHT22;39163;52.696;6.758;2022-12-18T03:05:01;-6.60;99.90
53274;DHT22;39163;52.696;6.758;2022-12-18T03:07:33;-6.70;99.90
53274;DHT22;39163;52.696;6.758;2022-12-18T03:10:00;-6.80;99.90
53274;DHT22;39163;52.696;6.758;2022-12-18T03:12:34;-6.80;99.90
53274;DHT22;39163;52.696;6.758;2022-12-18T03:15:08;-6.90;99.90
53274;DHT22;39163;52.696;6.758;2022-12-18T03:17:35;-6.80;99.90
53274;DHT22;39163;52.696;6.758;2022-12-18T03:20:06;-6.80;99.90
53274;DHT22;39163;52.696;6.758;2022-12-18T03:22:33;-6.90;99.90
53274;DHT22;39163;52.696;6.758;2022-12-18T03:25:00;-6.90;99.90
53274;DHT22;39163;52.696;6.758;2022-12-18T03:27:27;-6.80;99.90
53274;DHT22;39163;52.696;6.758;2022-12-18T03:30:04;-6.80;99.90
53274;DHT22;39163;52.696;6.758;2022-12-18T03:32:39;-6.80;99.90
53274;DHT22;39163;52.696;6.758;2022-12-18T03:35:07;-6.80;99.90
53274;DHT22;39163;52.696;6.758;2022-12-18T03:37:33;-6.80;99.90
53274;DHT22;39163;52.696;6.758;2022-12-18T03:39:59;-6.80;99.90
53274;DHT22;39163;52.696;6.758;2022-12-18T03:42:26;-6.90;99.90
53274;DHT22;39163;52.696;6.758;2022-12-18T03:47:39;-6.90;99.90
53274;DHT22;39163;52.696;6.758;2022-12-18T03:52:48;-6.90;99.90
53274;DHT22;39163;52.696;6.758;2022-12-18T03:55:15;-6.90;99.90
53274;DHT22;39163;52.696;6.758;2022-12-18T03:57:42;-7.00;99.90
53274;DHT22;39163;52.696;6.758;2022-12-18T04:00:11;-7.00;99.90
53274;DHT22;39163;52.696;6.758;2022-12-18T04:02:37;-7.10;99.90
53274;DHT22;39163;52.696;6.758;2022-12-18T04:05:04;-7.10;99.90
53274;DHT22;39163;52.696;6.758;2022-12-18T04:07:32;-7.10;99.90
53274;DHT22;39163;52.696;6.758;2022-12-18T04:09:58;-7.10;99.90
53274;DHT22;39163;52.696;6.758;2022-12-18T04:12:25;-7.10;99.90
53274;DHT22;39163;52.696;6.758;2022-12-18T04:14:51;-7.10;99.90
53274;DHT22;39163;52.696;6.758;2022-12-18T04:17:17;-7.20;99.90
53274;DHT22;39163;52.696;6.758;2022-12-18T04:19:43;-7.20;99.90
53274;DHT22;39163;52.696;6.758;2022-12-18T04:22:09;-7.20;99.90
53274;DHT22;39163;52.696;6.758;2022-12-18T04:24:35;-7.10;99.90
53274;DHT22;39163;52.696;6.758;2022-12-18T04:27:01;-7.20;99.90
53274;DHT22;39163;52.696;6.758;2022-12-18T04:29:27;-7.20;99.90
53274;DHT22;39163;52.696;6.758;2022-12-18T04:31:52;-7.30;99.90
53274;DHT22;39163;52.696;6.758;2022-12-18T04:34:18;-7.30;99.90
53274;DHT22;39163;52.696;6.758;2022-12-18T04:36:43;-7.20;99.90
53274;DHT22;39163;52.696;6.758;2022-12-18T04:39:09;-7.20;99.90
53274;DHT22;39163;52.696;6.758;2022-12-18T04:41:34;-7.20;99.90
53274;DHT22;39163;52.696;6.758;2022-12-18T04:44:00;-7.20;99.90
53274;DHT22;39163;52.696;6.758;2022-12-18T04:46:25;-7.20;99.90
53274;DHT22;39163;52.696;6.758;2022-12-18T04:48:51;-7.10;99.90
53274;DHT22;39163;52.696;6.758;2022-12-18T04:51:17;-7.10;99.90
53274;DHT22;39163;52.696;6.758;2022-12-18T04:53:42;-7.10;99.90
53274;DHT22;39163;52.696;6.758;2022-12-18T04:56:09;-7.00;99.90
53274;DHT22;39163;52.696;6.758;2022-12-18T04:58:35;-7.00;99.90
53274;DHT22;39163;52.696;6.758;2022-12-18T05:01:01;-7.00;99.90
53274;DHT22;39163;52.696;6.758;2022-12-18T05:03:27;-7.00;99.90
53274;DHT22;39163;52.696;6.758;2022-12-18T05:05:52;-7.00;99.90
53274;DHT22;39163;52.696;6.758;2022-12-18T05:08:18;-7.10;99.90
53274;DHT22;39163;52.696;6.758;2022-12-18T05:10:44;-7.10;99.90
53274;DHT22;39163;52.696;6.758;2022-12-18T05:13:09;-7.10;99.90
53274;DHT22;39163;52.696;6.758;2022-12-18T05:15:35;-7.20;99.90
53274;DHT22;39163;52.696;6.758;2022-12-18T05:18:01;-7.20;99.90
53274;DHT22;39163;52.696;6.758;2022-12-18T05:20:27;-7.20;99.90
53274;DHT22;39163;52.696;6.758;2022-12-18T05:22:53;-7.20;99.90
53274;DHT22;39163;52.696;6.758;2022-12-18T05:25:19;-7.20;99.90
53274;DHT22;39163;52.696;6.758;2022-12-18T05:27:44;-7.20;99.90
53274;DHT22;39163;52.696;6.758;2022-12-18T05:30:10;-7.20;99.90
53274;DHT22;39163;52.696;6.758;2022-12-18T05:32:37;-7.20;99.90
53274;DHT22;39163;52.696;6.758;2022-12-18T05:35:03;-7.20;99.90
53274;DHT22;39163;52.696;6.758;2022-12-18T05:37:28;-7.20;99.90
53274;DHT22;39163;52.696;6.758;2022-12-18T05:39:54;-7.20;99.90
53274;DHT22;39163;52.696;6.758;2022-12-18T05:42:19;-7.20;99.90
53274;DHT22;39163;52.696;6.758;2022-12-18T05:44:45;-7.20;99.90
53274;DHT22;39163;52.696;6.758;2022-12-18T05:47:11;-7.00;99.90
53274;DHT22;39163;52.696;6.758;2022-12-18T05:49:36;-7.20;99.90
53274;DHT22;39163;52.696;6.758;2022-12-18T05:52:02;-7.10;99.90
53274;DHT22;39163;52.696;6.758;2022-12-18T05:54:28;-7.10;99.90
53274;DHT22;39163;52.696;6.758;2022-12-18T05:56:53;-7.00;99.90
53274;DHT22;39163;52.696;6.758;2022-12-18T05:59:19;-7.10;99.90
53274;DHT22;39163;52.696;6.758;2022-12-18T06:01:45;-7.10;99.90
53274;DHT22;39163;52.696;6.758;2022-12-18T06:04:10;-7.10;99.90
53274;DHT22;39163;52.696;6.758;2022-12-18T06:06:36;-7.10;99.90
53274;DHT22;39163;52.696;6.758;2022-12-18T06:09:02;-7.20;99.90
53274;DHT22;39163;52.696;6.758;2022-12-18T06:11:34;-7.20;99.90
53274;DHT22;39163;52.696;6.758;2022-12-18T06:13:59;-7.20;99.90
53274;DHT22;39163;52.696;6.758;2022-12-18T06:16:26;-7.20;99.90
53274;DHT22;39163;52.696;6.758;2022-12-18T06:18:51;-7.30;99.90
53274;DHT22;39163;52.696;6.758;2022-12-18T06:21:17;-7.20;99.90
53274;DHT22;39163;52.696;6.758;2022-12-18T06:23:43;-7.20;99.90
53274;DHT22;39163;52.696;6.758;2022-12-18T06:26:10;-7.30;99.90
53274;DHT22;39163;52.696;6.758;2022-12-18T06:28:36;-7.20;99.90
53274;DHT22;39163;52.696;6.758;2022-12-18T06:31:03;-7.20;99.90
53274;DHT22;39163;52.696;6.758;2022-12-18T06:33:28;-7.20;99.90
53274;DHT22;39163;52.696;6.758;2022-12-18T06:35:59;-7.20;99.90
53274;DHT22;39163;52.696;6.758;2022-12-18T06:38:24;-7.20;99.90
53274;DHT22;39163;52.696;6.758;2022-12-18T06:40:50;-7.20;99.90
53274;DHT22;39163;52.696;6.758;2022-12-18T06:43:15;-7.20;99.90
53274;DHT22;39163;52.696;6.758;2022-12-18T06:45:41;-7.20;99.90
53274;DHT22;39163;52.696;6.758;2022-12-18T06:48:07;-7.10;99.90
53274;DHT22;39163;52.696;6.758;2022-12-18T06:50:33;-7.10;99.90
53274;DHT22;39163;52.696;6.758;2022-12-18T06:52:59;-7.20;99.90
53274;DHT22;39163;52.696;6.758;2022-12-18T06:55:24;-7.10;99.90
53274;DHT22;39163;52.696;6.758;2022-12-18T06:57:50;-7.20;99.90
53274;DHT22;39163;52.696;6.758;2022-12-18T07:00:16;-7.10;99.90
53274;DHT22;39163;52.696;6.758;2022-12-18T07:02:41;-7.20;99.90
53274;DHT22;39163;52.696;6.758;2022-12-18T07:05:07;-7.20;99.90
53274;DHT22;39163;52.696;6.758;2022-12-18T07:07:33;-7.30;99.90
53274;DHT22;39163;52.696;6.758;2022-12-18T07:09:59;-7.30;99.90
53274;DHT22;39163;52.696;6.758;2022-12-18T07:12:26;-7.30;99.90
53274;DHT22;39163;52.696;6.758;2022-12-18T07:14:51;-7.30;99.90
53274;DHT22;39163;52.696;6.758;2022-12-18T07:17:17;-7.30;99.90
53274;DHT22;39163;52.696;6.758;2022-12-18T07:19:42;-7.30;99.90
53274;DHT22;39163;52.696;6.758;2022-12-18T07:22:11;-7.30;99.90
53274;DHT22;39163;52.696;6.758;2022-12-18T07:24:39;-7.20;99.90
53274;DHT22;39163;52.696;6.758;2022-12-18T07:27:08;-7.00;99.90
53274;DHT22;39163;52.696;6.758;2022-12-18T07:29:36;-7.20;99.90
53274;DHT22;39163;52.696;6.758;2022-12-18T07:32:04;-7.20;99.90
53274;DHT22;39163;52.696;6.758;2022-12-18T07:34:33;-7.20;99.90
53274;DHT22;39163;52.696;6.758;2022-12-18T07:37:01;-7.30;99.90
53274;DHT22;39163;52.696;6.758;2022-12-18T07:39:27;-7.20;99.90
53274;DHT22;39163;52.696;6.758;2022-12-18T07:41:53;-7.30;99.90
53274;DHT22;39163;52.696;6.758;2022-12-18T07:47:23;-7.40;99.90
53274;DHT22;39163;52.696;6.758;2022-12-18T07:49:58;-7.30;99.90
53274;DHT22;39163;52.696;6.758;2022-12-18T07:52:49;-7.20;99.90
53274;DHT22;39163;52.696;6.758;2022-12-18T07:55:20;-7.20;99.90
53274;DHT22;39163;52.696;6.758;2022-12-18T07:58:08;-7.00;99.90
53274;DHT22;39163;52.696;6.758;2022-12-18T08:06:00;-6.80;99.90
53274;DHT22;39163;52.696;6.758;2022-12-18T08:08:29;-6.80;99.90
53274;DHT22;39163;52.696;6.758;2022-12-18T08:11:19;-6.50;99.90
53274;DHT22;39163;52.696;6.758;2022-12-18T08:14:12;-6.50;99.90
53274;DHT22;39163;52.696;6.758;2022-12-18T08:26:48;-6.10;99.90
53274;DHT22;39163;52.696;6.758;2022-12-18T08:29:18;-6.00;99.90
53274;DHT22;39163;52.696;6.758;2022-12-18T08:32:30;-5.90;99.90
53274;DHT22;39163;52.696;6.758;2022-12-18T08:35:16;-5.90;99.90
53274;DHT22;39163;52.696;6.758;2022-12-18T08:38:18;-5.80;99.90
53274;DHT22;39163;52.696;6.758;2022-12-18T08:44:12;-5.60;99.90
53274;DHT22;39163;52.696;6.758;2022-12-18T08:46:56;-5.60;99.90
53274;DHT22;39163;52.696;6.758;2022-12-18T08:49:24;-5.50;99.90
53274;DHT22;39163;52.696;6.758;2022-12-18T08:51:59;-5.40;99.90
53274;DHT22;39163;52.696;6.758;2022-12-18T08:54:37;-5.30;99.90
53274;DHT22;39163;52.696;6.758;2022-12-18T08:57:10;-5.20;99.90
53274;DHT22;39163;52.696;6.758;2022-12-18T08:59:36;-5.00;99.90
53274;DHT22;39163;52.696;6.758;2022-12-18T09:02:01;-4.90;99.90
53274;DHT22;39163;52.696;6.758;2022-12-18T09:04:27;-4.80;99.90
53274;DHT22;39163;52.696;6.758;2022-12-18T09:06:53;-4.70;99.90
53274;DHT22;39163;52.696;6.758;2022-12-18T09:09:18;-4.50;99.90
53274;DHT22;39163;52.696;6.758;2022-12-18T09:11:44;-4.40;99.90
53274;DHT22;39163;52.696;6.758;2022-12-18T09:14:10;-4.20;99.90
53274;DHT22;39163;52.696;6.758;2022-12-18T09:16:35;-4.10;99.90
53274;DHT22;39163;52.696;6.758;2022-12-18T09:19:02;-4.00;99.90
53274;DHT22;39163;52.696;6.758;2022-12-18T09:21:32;-4.00;99.90
53274;DHT22;39163;52.696;6.758;2022-12-18T09:23:58;-4.00;99.90
53274;DHT22;39163;52.696;6.758;2022-12-18T09:26:24;-4.00;99.90
53274;DHT22;39163;52.696;6.758;2022-12-18T09:28:50;-4.00;99.90
53274;DHT22;39163;52.696;6.758;2022-12-18T09:31:16;-3.80;99.90
53274;DHT22;39163;52.696;6.758;2022-12-18T09:36:57;-3.60;99.90
53274;DHT22;39163;52.696;6.758;2022-12-18T09:39:23;-3.40;99.90
53274;DHT22;39163;52.696;6.758;2022-12-18T09:41:53;-3.40;99.90
53274;DHT22;39163;52.696;6.758;2022-12-18T09:46:51;-3.20;99.90
53274;DHT22;39163;52.696;6.758;2022-12-18T09:49:24;-3.20;99.90
53274;DHT22;39163;52.696;6.758;2022-12-18T09:52:35;-3.10;99.90
53274;DHT22;39163;52.696;6.758;2022-12-18T09:54:41;-3.10;99.90
53274;DHT22;39163;52.696;6.758;2022-12-18T09:57:10;-3.00;99.90
53274;DHT22;39163;52.696;6.758;2022-12-18T09:59:38;-2.90;99.90
53274;DHT22;39163;52.696;6.758;2022-12-18T10:02:15;-2.80;99.90
53274;DHT22;39163;52.696;6.758;2022-12-18T10:04:44;-2.70;99.90
53274;DHT22;39163;52.696;6.758;2022-12-18T10:07:15;-2.70;99.90
53274;DHT22;39163;52.696;6.758;2022-12-18T10:12:25;-2.60;99.90
53274;DHT22;39163;52.696;6.758;2022-12-18T10:15:01;-2.50;99.90
53274;DHT22;39163;52.696;6.758;2022-12-18T10:28:00;-2.30;99.90
53274;DHT22;39163;52.696;6.758;2022-12-18T10:30:32;-2.40;99.90
53274;DHT22;39163;52.696;6.758;2022-12-18T10:33:02;-2.30;99.90
53274;DHT22;39163;52.696;6.758;2022-12-18T10:38:20;-2.40;99.90
53274;DHT22;39163;52.696;6.758;2022-12-18T10:43:20;-2.40;99.90
53274;DHT22;39163;52.696;6.758;2022-12-18T10:45:57;-2.30;99.90
53274;DHT22;39163;52.696;6.758;2022-12-18T10:48:23;-2.30;99.90
53274;DHT22;39163;52.696;6.758;2022-12-18T10:50:49;-2.20;99.90
53274;DHT22;39163;52.696;6.758;2022-12-18T10:53:21;-2.20;99.90
53274;DHT22;39163;52.696;6.758;2022-12-18T10:55:47;-2.10;99.90
53274;DHT22;39163;52.696;6.758;2022-12-18T10:58:23;-2.10;99.90
53274;DHT22;39163;52.696;6.758;2022-12-18T11:01:03;-2.00;99.90
53274;DHT22;39163;52.696;6.758;2022-12-18T11:03:36;-2.00;99.90
53274;DHT22;39163;52.696;6.758;2022-12-18T11:06:07;-2.00;99.90
53274;DHT22;39163;52.696;6.758;2022-12-18T11:08:33;-1.90;99.90
53274;DHT22;39163;52.696;6.758;2022-12-18T11:10:58;-1.90;99.90
53274;DHT22;39163;52.696;6.758;2022-12-18T11:13:25;-1.90;99.90
53274;DHT22;39163;52.696;6.758;2022-12-18T11:15:51;-1.80;99.90
53274;DHT22;39163;52.696;6.758;2022-12-18T11:18:17;-1.80;99.90
53274;DHT22;39163;52.696;6.758;2022-12-18T11:20:52;-1.80;99.90
53274;DHT22;39163;52.696;6.758;2022-12-18T11:23:18;-1.80;99.90
53274;DHT22;39163;52.696;6.758;2022-12-18T11:25:51;-1.70;99.90
53274;DHT22;39163;52.696;6.758;2022-12-18T11:28:27;-1.70;99.90
53274;DHT22;39163;52.696;6.758;2022-12-18T11:33:35;-1.60;99.90
53274;DHT22;39163;52.696;6.758;2022-12-18T11:36:02;-1.60;99.90
53274;DHT22;39163;52.696;6.758;2022-12-18T11:38:30;-1.50;99.90
53274;DHT22;39163;52.696;6.758;2022-12-18T11:40:59;-1.50;99.90
53274;DHT22;39163;52.696;6.758;2022-12-18T11:43:28;-1.40;99.90
53274;DHT22;39163;52.696;6.758;2022-12-18T11:46:02;-1.40;99.90
53274;DHT22;39163;52.696;6.758;2022-12-18T11:48:34;-1.40;99.90
53274;DHT22;39163;52.696;6.758;2022-12-18T11:51:04;-1.30;99.90
53274;DHT22;39163;52.696;6.758;2022-12-18T11:53:30;-1.30;99.90
53274;DHT22;39163;52.696;6.758;2022-12-18T12:03:24;-1.20;99.90
53274;DHT22;39163;52.696;6.758;2022-12-18T12:05:58;-1.20;99.90
53274;DHT22;39163;52.696;6.758;2022-12-18T12:08:34;-1.20;99.90
53274;DHT22;39163;52.696;6.758;2022-12-18T12:11:08;-1.20;99.90
53274;DHT22;39163;52.696;6.758;2022-12-18T12:13:41;-1.10;99.90
53274;DHT22;39163;52.696;6.758;2022-12-18T12:21:41;-1.00;99.90
53274;DHT22;39163;52.696;6.758;2022-12-18T12:30:06;-1.00;99.90
53274;DHT22;39163;52.696;6.758;2022-12-18T12:40:20;-0.90;99.90
53274;DHT22;39163;52.696;6.758;2022-12-18T12:42:51;-1.00;99.90
53274;DHT22;39163;52.696;6.758;2022-12-18T12:48:07;-0.90;99.90
53274;DHT22;39163;52.696;6.758;2022-12-18T12:50:36;-0.90;99.90
53274;DHT22;39163;52.696;6.758;2022-12-18T12:53:05;-0.80;99.90
53274;DHT22;39163;52.696;6.758;2022-12-18T12:55:32;-0.80;99.90
53274;DHT22;39163;52.696;6.758;2022-12-18T12:58:02;-0.80;99.90
53274;DHT22;39163;52.696;6.758;2022-12-18T13:00:35;-0.80;99.90
53274;DHT22;39163;52.696;6.758;2022-12-18T13:03:12;-0.70;99.90
53274;DHT22;39163;52.696;6.758;2022-12-18T13:05:45;-0.70;99.90
53274;DHT22;39163;52.696;6.758;2022-12-18T13:08:27;-0.70;99.90
53274;DHT22;39163;52.696;6.758;2022-12-18T13:10:53;-0.70;99.90
53274;DHT22;39163;52.696;6.758;2022-12-18T13:13:58;-0.70;99.90
53274;DHT22;39163;52.696;6.758;2022-12-18T13:16:24;-0.60;99.90
53274;DHT22;39163;52.696;6.758;2022-12-18T13:18:50;-0.60;99.90
53274;DHT22;39163;52.696;6.758;2022-12-18T13:23:49;-0.50;99.90
53274;DHT22;39163;52.696;6.758;2022-12-18T13:34:38;-0.50;99.90
53274;DHT22;39163;52.696;6.758;2022-12-18T13:36:45;-0.40;99.90
53274;DHT22;39163;52.696;6.758;2022-12-18T13:41:50;-0.40;99.90
53274;DHT22;39163;52.696;6.758;2022-12-18T13:44:28;-0.50;99.90
53274;DHT22;39163;52.696;6.758;2022-12-18T13:46:56;-0.50;99.90
53274;DHT22;39163;52.696;6.758;2022-12-18T13:49:23;-0.50;99.90
53274;DHT22;39163;52.696;6.758;2022-12-18T13:51:50;-0.50;99.90
53274;DHT22;39163;52.696;6.758;2022-12-18T13:56:48;-0.60;99.90
53274;DHT22;39163;52.696;6.758;2022-12-18T14:01:47;-0.60;99.90
53274;DHT22;39163;52.696;6.758;2022-12-18T14:04:20;-0.60;99.90
53274;DHT22;39163;52.696;6.758;2022-12-18T14:06:50;-0.70;99.90
53274;DHT22;39163;52.696;6.758;2022-12-18T14:09:17;-0.70;99.90
53274;DHT22;39163;52.696;6.758;2022-12-18T14:11:49;-0.80;99.90
53274;DHT22;39163;52.696;6.758;2022-12-18T14:14:16;-0.80;99.90
53274;DHT22;39163;52.696;6.758;2022-12-18T14:16:41;-0.90;99.90
53274;DHT22;39163;52.696;6.758;2022-12-18T14:19:09;-0.90;99.90
53274;DHT22;39163;52.696;6.758;2022-12-18T14:21:37;-0.90;99.90
53274;DHT22;39163;52.696;6.758;2022-12-18T14:24:06;-1.00;99.90
53274;DHT22;39163;52.696;6.758;2022-12-18T14:26:32;-1.00;99.90
53274;DHT22;39163;52.696;6.758;2022-12-18T14:29:17;-1.00;99.90
53274;DHT22;39163;52.696;6.758;2022-12-18T14:32:20;-1.00;99.90
53274;DHT22;39163;52.696;6.758;2022-12-18T15:13:40;-1.30;99.90
53274;DHT22;39163;52.696;6.758;2022-12-18T15:19:16;-1.30;99.90
53274;DHT22;39163;52.696;6.758;2022-12-18T15:39:30;-1.40;99.90
53274;DHT22;39163;52.696;6.758;2022-12-18T15:42:07;-1.40;99.90
53274;DHT22;39163;52.696;6.758;2022-12-18T15:44:51;-1.40;99.90
53274;DHT22;39163;52.696;6.758;2022-12-18T15:53:38;-1.40;99.90
53274;DHT22;39163;52.696;6.758;2022-12-18T15:56:40;-1.40;99.90
53274;DHT22;39163;52.696;6.758;2022-12-18T15:59:27;-1.30;99.90
53274;DHT22;39163;52.696;6.758;2022-12-18T21:14:38;0.80;99.90
53274;DHT22;39163;52.696;6.758;2022-12-18T21:17:04;0.80;99.90
53274;DHT22;39163;52.696;6.758;2022-12-18T21:19:30;0.90;99.90
53274;DHT22;39163;52.696;6.758;2022-12-18T21:21:56;0.80;99.90
53274;DHT22;39163;52.696;6.758;2022-12-18T21:24:25;0.90;99.90
53274;DHT22;39163;52.696;6.758;2022-12-18T21:26:51;0.90;99.90
53274;DHT22;39163;52.696;6.758;2022-12-18T21:29:18;0.90;99.90
53274;DHT22;39163;52.696;6.758;2022-12-18T21:31:44;0.90;99.90
53274;DHT22;39163;52.696;6.758;2022-12-18T21:34:15;0.90;99.90
53274;DHT22;39163;52.696;6.758;2022-12-18T21:36:41;0.90;99.90
53274;DHT22;39163;52.696;6.758;2022-12-18T21:39:06;0.90;99.90
53274;DHT22;39163;52.696;6.758;2022-12-18T21:41:32;0.90;99.90
53274;DHT22;39163;52.696;6.758;2022-12-18T21:44:16;1.00;99.90
53274;DHT22;39163;52.696;6.758;2022-12-18T21:46:43;1.00;99.90
53274;DHT22;39163;52.696;6.758;2022-12-18T21:49:10;0.90;99.90
53274;DHT22;39163;52.696;6.758;2022-12-18T21:51:36;1.00;99.90
53274;DHT22;39163;52.696;6.758;2022-12-18T21:54:02;0.90;99.90
53274;DHT22;39163;52.696;6.758;2022-12-18T21:59:12;0.90;99.90
53274;DHT22;39163;52.696;6.758;2022-12-18T22:01:38;0.90;99.90
53274;DHT22;39163;52.696;6.758;2022-12-18T22:04:04;0.90;99.90
53274;DHT22;39163;52.696;6.758;2022-12-18T22:06:30;0.90;99.90
53274;DHT22;39163;52.696;6.758;2022-12-18T22:08:55;0.90;99.90
53274;DHT22;39163;52.696;6.758;2022-12-18T22:11:21;0.90;99.90
53274;DHT22;39163;52.696;6.758;2022-12-18T22:13:46;0.90;99.90
53274;DHT22;39163;52.696;6.758;2022-12-18T22:16:12;0.90;99.90
53274;DHT22;39163;52.696;6.758;2022-12-18T22:18:38;0.90;99.90
53274;DHT22;39163;52.696;6.758;2022-12-18T22:21:04;0.90;99.90
53274;DHT22;39163;52.696;6.758;2022-12-18T22:23:30;0.90;99.90
53274;DHT22;39163;52.696;6.758;2022-12-18T22:26:03;0.90;99.90
53274;DHT22;39163;52.696;6.758;2022-12-18T22:28:42;0.90;99.90
53274;DHT22;39163;52.696;6.758;2022-12-18T22:31:40;0.90;99.90
53274;DHT22;39163;52.696;6.758;2022-12-18T22:34:06;0.90;99.90
53274;DHT22;39163;52.696;6.758;2022-12-18T22:36:42;0.90;99.90
53274;DHT22;39163;52.696;6.758;2022-12-18T22:41:59;0.90;99.90
53274;DHT22;39163;52.696;6.758;2022-12-18T22:44:25;0.90;99.90
53274;DHT22;39163;52.696;6.758;2022-12-18T22:46:51;0.90;99.90
53274;DHT22;39163;52.696;6.758;2022-12-18T22:49:20;0.90;99.90
53274;DHT22;39163;52.696;6.758;2022-12-18T22:51:46;0.90;99.90
53274;DHT22;39163;52.696;6.758;2022-12-18T22:54:11;0.90;99.90
53274;DHT22;39163;52.696;6.758;2022-12-18T22:56:37;0.90;99.90
53274;DHT22;39163;52.696;6.758;2022-12-18T22:59:03;0.90;99.90
53274;DHT22;39163;52.696;6.758;2022-12-18T23:01:29;0.90;99.90
53274;DHT22;39163;52.696;6.758;2022-12-18T23:03:55;0.90;99.90
53274;DHT22;39163;52.696;6.758;2022-12-18T23:06:22;0.90;99.90
53274;DHT22;39163;52.696;6.758;2022-12-18T23:08:48;1.00;99.90
53274;DHT22;39163;52.696;6.758;2022-12-18T23:11:14;1.00;99.90
53274;DHT22;39163;52.696;6.758;2022-12-18T23:13:40;1.00;99.90
53274;DHT22;39163;52.696;6.758;2022-12-18T23:16:10;1.00;99.90
53274;DHT22;39163;52.696;6.758;2022-12-18T23:18:37;1.00;99.90
53274;DHT22;39163;52.696;6.758;2022-12-18T23:21:07;1.00;99.90
53274;DHT22;39163;52.696;6.758;2022-12-18T23:23:33;1.00;99.90
53274;DHT22;39163;52.696;6.758;2022-12-18T23:26:00;1.00;99.90
53274;DHT22;39163;52.696;6.758;2022-12-18T23:28:26;1.10;99.90
53274;DHT22;39163;52.696;6.758;2022-12-18T23:30:51;1.10;99.90
53274;DHT22;39163;52.696;6.758;2022-12-18T23:33:17;1.10;99.90
53274;DHT22;39163;52.696;6.758;2022-12-18T23:35:43;1.10;99.90
53274;DHT22;39163;52.696;6.758;2022-12-18T23:38:08;1.10;99.90
53274;DHT22;39163;52.696;6.758;2022-12-18T23:40:34;1.10;99.90
53274;DHT22;39163;52.696;6.758;2022-12-18T23:42:59;1.20;99.90
53274;DHT22;39163;52.696;6.758;2022-12-18T23:45:25;1.20;99.90
53274;DHT22;39163;52.696;6.758;2022-12-18T23:47:50;1.20;99.90
53274;DHT22;39163;52.696;6.758;2022-12-18T23:50:16;1.20;99.90
53274;DHT22;39163;52.696;6.758;2022-12-18T23:52:42;1.20;99.90
53274;DHT22;39163;52.696;6.758;2022-12-18T23:55:07;1.20;99.90
53274;DHT22;39163;52.696;6.758;2022-12-18T23:57:33;1.20;99.90
53274;DHT22;39163;52.696;6.758;2022-12-18T23:59:58;1.20;99.90
